createdAt,value
2018-09-06T00:00:54.985Z,54.60
2018-09-06T00:05:57.362Z,55.30
2018-09-06T00:11:00.594Z,55.60
2018-09-06T00:16:03.626Z,56.20
2018-09-06T00:21:06.247Z,56.30
2018-09-06T00:26:09.572Z,56.70
2018-09-06T00:31:12.006Z,56.80
2018-09-06T00:36:15.778Z,56.80
2018-09-06T00:41:18.055Z,56.90
2018-09-06T00:46:20.241Z,57.80
2018-09-06T00:51:25.239Z,59.10
2018-09-06T00:56:28.568Z,59.20
2018-09-06T01:01:30.970Z,59.80
2018-09-06T01:06:35.405Z,59.60
2018-09-06T01:11:37.905Z,59.70
2018-09-06T01:16:40.073Z,58.70
2018-09-06T01:21:44.057Z,59.50
2018-09-06T01:26:46.661Z,60.10
2018-09-06T01:31:50.900Z,60.40
2018-09-06T01:36:56.820Z,60.40
2018-09-06T01:42:00.333Z,61.10
2018-09-06T01:47:02.644Z,63.10
2018-09-06T01:52:05.064Z,62.40
2018-09-06T01:57:09.290Z,61.60
2018-09-06T02:02:11.513Z,62.50
2018-09-06T02:07:13.689Z,61.80
2018-09-06T02:12:15.853Z,62.20
2018-09-06T02:17:18.229Z,62.70
2018-09-06T02:22:24.154Z,63.40
2018-09-06T02:27:26.981Z,63.20
2018-09-06T02:32:29.142Z,64.10
2018-09-06T02:37:32.521Z,65.70
2018-09-06T02:42:35.006Z,66.80
2018-09-06T02:47:41.780Z,65.90
2018-09-06T02:52:44.741Z,66.30
2018-09-06T02:57:47.181Z,66.90
2018-09-06T03:02:50.977Z,67.00
2018-09-06T03:07:54.293Z,67.80
2018-09-06T03:12:57.101Z,67.30
2018-09-06T03:17:59.478Z,68.40
2018-09-06T03:23:02.493Z,69.00
2018-09-06T03:28:07.378Z,69.00
2018-09-06T03:33:10.765Z,68.70
2018-09-06T03:38:14.081Z,70.20
2018-09-06T03:43:16.300Z,71.00
2018-09-06T03:48:18.466Z,70.70
2018-09-06T03:53:20.710Z,70.50
2018-09-06T03:58:22.905Z,70.90
2018-09-06T04:03:25.065Z,72.40
2018-09-06T04:08:27.270Z,71.50
2018-09-06T04:13:30.921Z,71.90
2018-09-06T04:18:33.083Z,72.70
2018-09-06T04:23:35.266Z,74.80
2018-09-06T04:28:40.004Z,73.80
2018-09-06T04:33:42.408Z,74.20
2018-09-06T04:38:44.586Z,76.80
2018-09-06T04:43:49.007Z,78.70
2018-09-06T04:48:53.154Z,79.80
2018-09-06T04:53:55.650Z,78.30
2018-09-06T04:58:58.437Z,78.30
2018-09-06T05:04:00.710Z,78.90
2018-09-06T05:09:05.253Z,77.40
2018-09-06T05:14:07.673Z,77.50
2018-09-06T05:19:10.078Z,75.80
2018-09-06T05:24:12.233Z,74.40
2018-09-06T05:29:14.381Z,73.10
2018-09-06T05:34:16.525Z,72.10
2018-09-06T05:39:19.750Z,70.70
2018-09-06T05:44:22.969Z,71.00
2018-09-06T05:49:25.154Z,70.20
2018-09-06T05:54:27.293Z,68.90
2018-09-06T05:59:29.465Z,66.30
2018-09-06T06:04:32.047Z,65.80
2018-09-06T06:09:37.128Z,66.50
2018-09-06T06:14:39.405Z,65.50
2018-09-06T06:19:41.557Z,65.30
2018-09-06T06:24:43.716Z,66.00
2018-09-06T06:29:45.878Z,65.60
2018-09-06T06:34:48.069Z,66.50
2018-09-06T06:39:51.272Z,67.30
2018-09-06T06:44:53.337Z,67.00
2018-09-06T06:49:55.489Z,66.80
2018-09-06T06:54:58.474Z,66.50
2018-09-06T07:00:03.202Z,65.40
2018-09-06T07:05:07.400Z,64.70
2018-09-06T07:10:11.800Z,63.20
2018-09-06T07:15:14.514Z,60.70
2018-09-06T07:20:17.134Z,58.00
2018-09-06T07:25:19.298Z,55.60
2018-09-06T07:30:21.452Z,53.20
2018-09-06T07:35:23.738Z,50.80
2018-09-06T07:40:26.124Z,50.70
2018-09-06T07:45:29.286Z,50.20
2018-09-06T07:50:31.446Z,49.80
2018-09-06T07:55:35.348Z,50.30
2018-09-06T08:00:40.366Z,51.30
2018-09-06T08:05:43.420Z,50.10
2018-09-06T08:10:46.029Z,50.30
2018-09-06T08:15:48.297Z,49.90
2018-09-06T08:20:50.493Z,49.50
2018-09-06T08:25:53.089Z,44.50
2018-09-06T08:30:55.807Z,44.50
2018-09-06T08:35:59.585Z,45.70
2018-09-06T08:41:01.841Z,45.80
2018-09-06T08:46:04.061Z,46.30
2018-09-06T08:51:06.564Z,48.60
2018-09-06T08:56:09.239Z,50.50
2018-09-06T09:01:17.436Z,52.40
2018-09-06T09:06:19.653Z,53.20
2018-09-06T09:11:22.241Z,58.20
2018-09-06T09:16:24.509Z,73.50
2018-09-06T09:21:26.687Z,80.70
2018-09-06T09:26:28.829Z,78.50
2018-09-06T09:31:31.738Z,86.30
2018-09-06T09:36:35.410Z,88.70
2018-09-06T09:41:37.578Z,91.60
2018-09-06T09:51:41.578Z,99.90
2018-09-06T09:56:43.746Z,99.90
2018-09-06T10:01:51.960Z,99.90
2018-09-06T10:07:00.450Z,99.90
2018-09-06T10:12:02.890Z,99.90
2018-09-06T10:17:05.129Z,99.90
2018-09-06T10:22:07.297Z,99.90
2018-09-06T10:27:09.493Z,99.90
2018-09-06T10:32:11.898Z,95.80
2018-09-06T10:37:15.531Z,99.90
2018-09-06T10:42:17.739Z,97.20
2018-09-06T10:47:19.931Z,91.00
2018-09-06T10:52:23.094Z,83.10
2018-09-06T10:57:28.739Z,78.80
2018-09-06T11:02:31.013Z,75.70
2018-09-06T11:07:34.313Z,80.90
2018-09-06T11:12:36.601Z,79.60
2018-09-06T11:17:38.806Z,77.50
2018-09-06T11:22:41.212Z,71.70
2018-09-06T11:27:43.176Z,72.80
2018-09-06T11:32:45.291Z,77.80
2018-09-06T11:37:47.493Z,76.50
2018-09-06T11:42:49.661Z,68.40
2018-09-06T11:47:52.234Z,68.30
2018-09-06T11:52:54.410Z,68.80
2018-09-06T11:57:56.701Z,77.60
2018-09-06T12:02:59.476Z,78.70
2018-09-06T12:08:02.005Z,73.40
2018-09-06T12:13:04.344Z,78.20
2018-09-06T12:18:06.594Z,80.20
2018-09-06T12:23:08.979Z,75.20
2018-09-06T12:28:11.470Z,71.30
2018-09-06T12:33:13.935Z,68.20
2018-09-06T12:38:16.422Z,71.30
2018-09-06T12:43:19.563Z,70.30
2018-09-06T12:48:21.737Z,68.40
2018-09-06T12:53:24.218Z,68.80
2018-09-06T12:58:27.101Z,68.50
2018-09-06T13:03:29.928Z,67.50
2018-09-06T13:08:33.550Z,69.10
2018-09-06T13:13:36.670Z,68.40
2018-09-06T13:18:39.196Z,67.20
2018-09-06T13:23:41.294Z,63.10
2018-09-06T13:28:44.300Z,64.00
2018-09-06T13:33:46.817Z,63.00
2018-09-06T13:38:49.010Z,64.00
2018-09-06T13:43:51.420Z,66.20
2018-09-06T13:48:53.836Z,61.50
2018-09-06T13:53:56.181Z,58.40
2018-09-06T13:58:58.860Z,59.80
2018-09-06T14:04:01.367Z,61.50
2018-09-06T14:09:04.477Z,59.30
2018-09-06T14:14:06.914Z,59.60
2018-09-06T14:19:09.257Z,61.10
2018-09-06T14:24:11.661Z,60.20
2018-09-06T14:29:14.070Z,62.00
2018-09-06T14:34:16.546Z,62.20
2018-09-06T14:39:18.818Z,59.50
2018-09-06T14:44:21.232Z,61.20
2018-09-06T14:49:23.734Z,61.70
2018-09-06T14:54:25.928Z,62.40
2018-09-06T14:59:28.346Z,64.30
2018-09-06T15:04:31.281Z,66.20
2018-09-06T15:09:33.935Z,69.80
2018-09-06T15:14:36.563Z,72.20
2018-09-06T15:19:38.758Z,68.80
2018-09-06T15:24:40.921Z,71.60
2018-09-06T15:29:43.289Z,70.10
2018-09-06T15:34:45.489Z,72.00
2018-09-06T15:39:47.898Z,71.50
2018-09-06T15:44:50.113Z,65.40
2018-09-06T15:49:53.912Z,61.40
2018-09-06T15:54:56.568Z,58.00
2018-09-06T15:59:59.181Z,64.00
2018-09-06T16:05:01.394Z,63.70
2018-09-06T16:10:03.602Z,67.20
2018-09-06T16:15:06.875Z,71.60
2018-09-06T16:20:09.125Z,71.70
2018-09-06T16:25:13.107Z,70.30
2018-09-06T16:30:17.777Z,75.10
2018-09-06T16:35:22.105Z,74.40
2018-09-06T16:40:24.438Z,77.20
2018-09-06T16:45:26.584Z,75.70
2018-09-06T16:50:28.790Z,71.30
2018-09-06T16:55:31.939Z,74.50
2018-09-06T17:00:35.359Z,77.50
2018-09-06T17:05:38.061Z,71.50
2018-09-06T17:10:40.269Z,73.70
2018-09-06T17:15:42.436Z,72.20
2018-09-06T17:20:45.236Z,75.40
2018-09-06T17:25:47.385Z,77.00
2018-09-06T17:30:51.490Z,80.20
2018-09-06T17:35:53.690Z,79.70
2018-09-06T17:40:56.501Z,78.10
2018-09-06T17:45:58.773Z,78.50
2018-09-06T17:51:01.949Z,79.50
2018-09-06T17:56:04.926Z,81.70
2018-09-06T18:01:24.456Z,81.70
2018-09-06T18:06:27.562Z,82.00
2018-09-06T18:11:30.815Z,82.20
2018-09-06T18:16:33.245Z,80.00
2018-09-06T18:21:35.417Z,81.30
2018-09-06T18:26:37.998Z,82.40
2018-09-06T18:31:40.188Z,83.50
2018-09-06T18:36:42.321Z,83.90
2018-09-06T18:41:45.462Z,85.30
2018-09-06T18:46:48.938Z,88.90
2018-09-06T18:51:51.118Z,94.00
2018-09-06T18:56:53.358Z,98.40
2018-09-06T19:01:55.617Z,99.90
2018-09-06T19:06:57.754Z,99.90
2018-09-06T19:11:59.944Z,99.90
2018-09-06T19:17:02.412Z,99.90
2018-09-06T19:22:04.864Z,99.90
2018-09-06T19:27:07.280Z,99.90
2018-09-06T19:32:09.690Z,99.90
2018-09-06T19:37:11.901Z,99.90
2018-09-06T19:42:14.062Z,99.90
2018-09-06T19:47:16.218Z,99.90
2018-09-06T19:52:18.378Z,99.90
2018-09-06T19:57:20.577Z,99.90
2018-09-06T20:02:23.198Z,99.90
2018-09-06T20:07:25.925Z,99.90
2018-09-06T20:12:36.273Z,99.90
2018-09-06T20:17:38.487Z,99.90
2018-09-06T20:22:41.649Z,99.90
2018-09-06T20:27:44.265Z,99.90
2018-09-06T20:32:46.943Z,99.90
2018-09-06T20:37:50.198Z,99.90
2018-09-06T20:42:52.608Z,99.90
2018-09-06T20:47:54.814Z,99.90
2018-09-06T20:52:56.944Z,99.90
2018-09-06T20:57:59.093Z,99.90
2018-09-06T21:03:01.336Z,99.90
2018-09-06T21:08:04.278Z,99.90
2018-09-06T21:13:06.437Z,99.90
2018-09-06T21:18:09.646Z,99.90
2018-09-06T21:23:11.882Z,99.90
2018-09-06T21:28:14.300Z,99.90
2018-09-06T21:33:16.594Z,99.90
2018-09-06T21:38:18.774Z,99.90
2018-09-06T21:43:21.625Z,99.90
2018-09-06T21:48:24.367Z,99.90
2018-09-06T21:53:26.658Z,99.90
2018-09-06T21:58:28.950Z,99.90
2018-09-06T22:03:36.822Z,99.90
2018-09-06T22:08:39.513Z,99.90
2018-09-06T22:13:42.042Z,99.90
2018-09-06T22:18:44.730Z,99.90
2018-09-06T22:23:48.321Z,99.90
2018-09-06T22:28:50.530Z,99.90
2018-09-06T22:33:52.716Z,99.90
2018-09-06T22:38:54.961Z,99.90
2018-09-06T22:43:57.633Z,99.90
2018-09-06T22:48:59.925Z,99.90
2018-09-06T22:54:02.449Z,99.90
2018-09-06T22:59:04.770Z,99.90
2018-09-06T23:04:06.943Z,99.90
2018-09-06T23:09:09.369Z,99.90
2018-09-06T23:14:11.576Z,99.90
2018-09-06T23:19:14.056Z,99.90
2018-09-06T23:24:16.214Z,99.90
2018-09-06T23:29:18.569Z,99.90
2018-09-06T23:34:21.796Z,99.90
2018-09-06T23:39:23.945Z,99.90
2018-09-06T23:44:26.130Z,99.90
2018-09-06T23:49:28.342Z,99.90
2018-09-06T23:54:30.565Z,99.90
2018-09-06T23:59:32.801Z,99.90
